Time;durP1;ratioP1;P1;durP2;ratioP2;P2;SDS_P1;SDS_P2;PMS_P1;PMS_P2;Temp;Humidity;BMP_temperature;BMP_pressure;BME280_temperature;BME280_humidity;BME280_pressure;Samples;Min_cycle;Max_cycle;Signal;HPM_P1;HPM_P2
2022/11/19 00:00:40;;;;;;;21.83;12.80;;;;;;;6.86;91.04;100698.75;5136792;27;20069;-67
2022/11/19 00:03:05;;;;;;;22.63;13.00;;;;;;;6.83;91.64;100696.06;5135469;27;20024;-67
2022/11/19 00:05:31;;;;;;;20.85;13.25;;;;;;;6.77;91.10;100695.94;5136441;27;20506;-65
2022/11/19 00:07:56;;;;;;;22.13;12.95;;;;;;;6.72;91.82;100697.53;5135560;27;20027;-66
2022/11/19 00:10:22;;;;;;;19.10;12.25;;;;;;;6.74;92.61;100701.97;5136454;27;20030;-67
2022/11/19 00:12:53;;;;;;;20.20;13.15;;;;;;;6.78;91.77;100697.69;5136820;27;20495;-66
2022/11/19 00:15:18;;;;;;;18.48;12.68;;;;;;;6.75;90.83;100700.22;5136861;27;20102;-66
2022/11/19 00:17:44;;;;;;;19.95;13.00;;;;;;;6.78;91.05;100701.19;5136516;27;20436;-66
2022/11/19 00:20:10;;;;;;;20.73;12.93;;;;;;;6.79;91.29;100715.22;5136353;27;20384;-67
2022/11/19 00:22:35;;;;;;;20.33;13.00;;;;;;;6.80;91.05;100713.47;5136479;27;20146;-67
2022/11/19 00:25:00;;;;;;;20.80;13.27;;;;;;;6.76;90.68;100716.00;5136541;27;20023;-66
2022/11/19 00:27:26;;;;;;;19.80;12.45;;;;;;;6.71;90.88;100712.41;5136320;27;20075;-66
2022/11/19 00:29:51;;;;;;;21.38;12.20;;;;;;;6.70;90.62;100712.38;5136284;27;20103;-66
2022/11/19 00:32:16;;;;;;;21.90;12.13;;;;;;;6.62;90.51;100712.19;5136288;27;20468;-66
2022/11/19 00:34:42;;;;;;;18.23;12.30;;;;;;;6.50;90.82;100714.50;5136028;27;20078;-66
2022/11/19 00:37:07;;;;;;;20.83;11.93;;;;;;;6.49;90.77;100710.09;5136115;27;20153;-67
2022/11/19 00:39:32;;;;;;;20.75;11.93;;;;;;;6.47;90.54;100717.94;5136226;27;20023;-66
2022/11/19 00:41:58;;;;;;;19.75;12.25;;;;;;;6.42;91.08;100718.66;5136014;27;20441;-66
2022/11/19 00:44:23;;;;;;;21.25;13.10;;;;;;;6.41;91.25;100724.75;5135944;27;20038;-66
2022/11/19 00:46:48;;;;;;;21.00;12.30;;;;;;;6.43;91.06;100723.97;5135949;27;20029;-66
2022/11/19 00:49:14;;;;;;;22.95;12.88;;;;;;;6.43;90.79;100723.97;5135972;27;20415;-66
2022/11/19 00:51:39;;;;;;;20.00;12.57;;;;;;;6.48;90.71;100734.59;5135092;27;20480;-66
2022/11/19 00:54:05;;;;;;;21.38;12.57;;;;;;;6.49;89.50;100736.34;5135881;27;20027;-66
2022/11/19 00:56:30;;;;;;;22.55;13.55;;;;;;;6.45;90.01;100737.13;5135957;27;20027;-65
2022/11/19 00:58:55;;;;;;;22.65;13.38;;;;;;;6.38;89.78;100738.72;5135682;27;20069;-65
2022/11/19 01:01:23;;;;;;;23.48;14.13;;;;;;;6.31;89.75;100744.66;5135729;27;20147;-66
2022/11/19 01:03:49;;;;;;;19.95;13.40;;;;;;;6.34;89.72;100743.81;5135757;27;20403;-66
2022/11/19 01:06:16;;;;;;;23.27;13.13;;;;;;;6.33;89.52;100739.44;5135614;27;20049;-66
2022/11/19 01:08:41;;;;;;;22.77;13.50;;;;;;;6.27;89.55;100738.41;5135557;27;20027;-65
2022/11/19 01:11:16;;;;;;;25.75;14.38;;;;;;;6.34;89.97;100747.34;5135356;27;20027;-66
2022/11/19 01:13:41;;;;;;;25.33;14.52;;;;;;;6.29;89.42;100748.94;5135478;27;20029;-66
2022/11/19 01:16:16;;;;;;;23.63;13.60;;;;;;;6.28;89.23;100755.06;5135480;27;20015;-65
2022/11/19 01:18:43;;;;;;;20.15;13.20;;;;;;;6.25;89.35;100753.25;5135526;27;20110;-66
2022/11/19 01:21:10;;;;;;;20.90;13.02;;;;;;;6.20;89.97;100756.56;5135353;27;20023;-67
2022/11/19 01:23:37;;;;;;;22.35;13.82;;;;;;;6.10;90.06;100750.19;5135218;27;20092;-65
2022/11/19 01:26:03;;;;;;;22.33;13.95;;;;;;;6.07;89.39;100765.84;5135171;27;20138;-65
2022/11/19 01:28:29;;;;;;;21.73;13.35;;;;;;;6.05;89.75;100767.56;5135098;27;20395;-66
2022/11/19 01:30:54;;;;;;;22.83;13.57;;;;;;;5.99;89.86;100767.38;5135142;27;20470;-66
2022/11/19 01:33:21;;;;;;;22.55;13.70;;;;;;;5.98;89.19;100760.34;5134964;27;20469;-65
2022/11/19 01:36:00;;;;;;;24.23;13.98;;;;;;;5.99;89.09;100770.88;5134595;27;20043;-65
2022/11/19 01:38:27;;;;;;;21.83;13.98;;;;;;;5.96;88.37;100768.19;5134966;27;20031;-65
2022/11/19 01:40:52;;;;;;;21.88;13.45;;;;;;;6.00;89.17;100769.16;5134913;27;20066;-65
2022/11/19 01:43:18;;;;;;;19.63;13.00;;;;;;;6.05;88.55;100785.91;5134778;27;20051;-65
2022/11/19 01:45:47;;;;;;;24.65;13.93;;;;;;;6.01;88.17;100774.44;5134795;27;20065;-65
2022/11/19 01:48:31;;;;;;;21.20;13.18;;;;;;;6.01;88.65;100770.94;5134693;27;20433;-65
2022/11/19 01:51:22;;;;;;;20.35;12.98;;;;;;;6.04;88.75;100776.28;5134732;27;20042;-65
2022/11/19 01:53:50;;;;;;;18.88;12.63;;;;;;;6.03;88.33;100788.47;5127642;27;20023;-65
2022/11/19 01:56:18;;;;;;;19.20;12.40;;;;;;;6.02;88.28;100788.44;5134591;27;20020;-65
2022/11/19 01:58:48;;;;;;;19.67;12.70;;;;;;;5.96;87.99;100794.41;5134553;27;20034;-65
2022/11/19 02:01:14;;;;;;;17.85;12.32;;;;;;;5.94;88.99;100797.81;5134881;27;20057;-65
2022/11/19 02:03:41;;;;;;;17.15;11.15;;;;;;;5.98;89.34;100794.44;5134441;27;20110;-65
2022/11/19 02:06:07;;;;;;;17.77;11.18;;;;;;;5.95;88.91;100792.66;5134233;27;20019;-65
2022/11/19 02:08:40;;;;;;;18.42;11.15;;;;;;;5.91;89.20;100803.84;5134625;27;20034;-65
2022/11/19 02:11:39;;;;;;;18.02;10.20;;;;;;;5.81;88.51;100806.16;5133088;27;20031;-65
2022/11/19 02:14:13;;;;;;;18.10;9.95;;;;;;;5.77;87.96;100799.94;5134241;27;20403;-65
2022/11/19 02:16:50;;;;;;;16.40;10.20;;;;;;;5.75;88.23;100801.63;5134393;27;20102;-65
2022/11/19 02:19:30;;;;;;;15.90;9.60;;;;;;;5.81;87.72;100811.41;5134327;27;20023;-65
2022/11/19 02:22:25;;;;;;;16.75;9.77;;;;;;;5.78;88.09;100806.94;5134192;27;20029;-65
2022/11/19 02:24:53;;;;;;;14.93;9.57;;;;;;;5.66;87.77;100817.97;5126203;27;20110;-65
2022/11/19 02:27:30;;;;;;;14.27;9.65;;;;;;;5.58;88.12;100806.38;5134317;27;20028;-65
2022/11/19 02:30:04;;;;;;;14.98;9.10;;;;;;;5.50;87.64;100813.09;5134362;27;20447;-65
2022/11/19 02:32:55;;;;;;;14.20;9.35;;;;;;;5.49;87.77;100811.34;5134077;27;20031;-65
2022/11/19 02:35:35;;;;;;;16.45;9.35;;;;;;;5.49;87.34;100814.84;5133802;27;20041;-65
2022/11/19 02:38:25;;;;;;;14.30;9.52;;;;;;;5.46;87.51;100806.88;5133978;27;20027;-65
2022/11/19 02:41:34;;;;;;;14.65;9.82;;;;;;;5.44;88.43;100819.06;5134025;27;20023;-65
2022/11/19 02:47:20;;;;;;;12.18;9.20;;;;;;;5.35;87.50;100823.09;5134358;28;20092;-66
2022/11/19 02:49:47;;;;;;;14.68;9.50;;;;;;;5.33;88.45;100814.31;5133886;27;20058;-66
2022/11/19 02:52:16;;;;;;;16.67;9.55;;;;;;;5.32;88.18;100815.16;5132628;28;20069;-66
2022/11/19 02:54:42;;;;;;;14.75;9.95;;;;;;;5.25;88.06;100822.81;5133709;27;20046;-66
2022/11/19 02:57:10;;;;;;;15.23;9.65;;;;;;;5.20;88.10;100819.16;5133759;27;20139;-66
2022/11/19 03:05:30;;;;;;;16.00;9.40;;;;;;;5.08;87.88;100828.34;5133606;28;20060;-68
2022/11/19 03:07:56;;;;;;;14.57;9.38;;;;;;;5.11;88.75;100834.59;5133592;27;20476;-67
2022/11/19 03:10:29;;;;;;;14.98;10.20;;;;;;;5.11;88.74;100833.69;5133653;27;20047;-66
2022/11/19 03:19:08;;;;;;;15.18;9.77;;;;;;;5.07;86.93;100837.06;5138101;27;20073;-66
2022/11/19 03:21:59;;;;;;;14.82;10.00;;;;;;;4.95;87.27;100845.41;5137662;27;20122;-67
2022/11/19 03:24:39;;;;;;;16.98;10.27;;;;;;;4.95;87.70;100845.41;5137811;27;20034;-66
2022/11/19 03:27:26;;;;;;;15.40;9.95;;;;;;;4.96;86.62;100848.06;5137612;27;20023;-66
2022/11/19 03:29:55;;;;;;;17.90;11.45;;;;;;;4.95;87.23;100846.28;5137479;27;20118;-67
2022/11/19 03:32:26;;;;;;;17.27;11.10;;;;;;;4.89;85.94;100858.28;5137673;27;20124;-67
2022/11/19 03:34:57;;;;;;;18.48;11.55;;;;;;;4.88;86.71;100860.03;5137223;27;20159;-66
2022/11/19 03:37:25;;;;;;;17.02;11.07;;;;;;;4.85;87.40;100854.66;5137429;27;20384;-66
2022/11/19 03:39:54;;;;;;;15.57;10.82;;;;;;;4.85;86.76;100851.16;5137303;27;20484;-66
2022/11/19 03:42:22;;;;;;;16.92;11.25;;;;;;;4.83;87.00;100850.22;5137247;27;20027;-67
2022/11/19 03:44:54;;;;;;;17.88;11.63;;;;;;;4.85;86.85;100849.44;5137055;27;20476;-66
2022/11/19 03:47:31;;;;;;;18.25;12.18;;;;;;;4.81;86.45;100847.56;5137339;27;20406;-66
2022/11/19 03:50:04;;;;;;;18.40;12.50;;;;;;;4.86;86.65;100852.94;5137476;27;20035;-66
2022/11/19 03:52:29;;;;;;;19.67;12.43;;;;;;;4.78;86.33;100860.53;5137034;27;20031;-65
2022/11/19 03:54:55;;;;;;;23.23;12.15;;;;;;;4.77;86.48;100857.03;5137200;27;20034;-65
2022/11/19 03:57:23;;;;;;;21.42;11.93;;;;;;;4.77;85.96;100861.38;5137075;27;20537;-65
2022/11/19 03:59:49;;;;;;;20.60;12.82;;;;;;;4.78;86.42;100865.75;5137071;27;20019;-66
2022/11/19 04:02:15;;;;;;;21.25;12.07;;;;;;;4.82;85.69;100859.78;5136848;27;20050;-65
2022/11/19 04:04:41;;;;;;;20.00;12.57;;;;;;;4.81;86.33;100860.66;5136674;27;20034;-65
2022/11/19 04:07:08;;;;;;;21.02;12.73;;;;;;;4.77;86.75;100861.38;5135237;27;20118;-66
2022/11/19 04:09:33;;;;;;;18.85;11.65;;;;;;;4.80;86.15;100868.41;5135411;27;20076;-66
2022/11/19 04:12:00;;;;;;;21.98;12.32;;;;;;;4.78;85.82;100863.16;5136633;27;20392;-66
2022/11/19 04:14:25;;;;;;;19.38;12.65;;;;;;;4.81;85.56;100862.38;5136853;27;20011;-67
2022/11/19 04:16:50;;;;;;;20.73;12.98;;;;;;;4.73;84.98;100873.47;5136736;27;20034;-65
2022/11/19 04:19:16;;;;;;;20.17;12.75;;;;;;;4.74;85.09;100874.34;5135179;27;20499;-65
2022/11/19 04:21:42;;;;;;;24.27;13.75;;;;;;;4.70;85.13;100878.59;5136390;27;20038;-65
2022/11/19 04:24:08;;;;;;;19.05;13.10;;;;;;;4.70;84.79;100875.97;5136249;27;20023;-65
2022/11/19 04:26:33;;;;;;;20.15;13.10;;;;;;;4.69;86.03;100874.19;5135232;27;20165;-66
2022/11/19 04:28:59;;;;;;;22.42;13.25;;;;;;;4.69;85.97;100884.66;5136287;27;20155;-65
2022/11/19 04:31:24;;;;;;;19.77;12.93;;;;;;;4.73;86.36;100894.41;5135209;27;20023;-65
2022/11/19 04:33:50;;;;;;;20.58;13.30;;;;;;;4.76;86.31;100891.00;5135959;27;20472;-65
2022/11/19 04:36:15;;;;;;;22.25;13.07;;;;;;;4.83;85.21;100894.72;5136077;27;20027;-65
2022/11/19 04:38:40;;;;;;;19.15;12.27;;;;;;;4.80;84.91;100897.22;5136159;27;20153;-65
2022/11/19 04:41:06;;;;;;;22.17;13.65;;;;;;;4.73;84.66;100899.63;5135005;27;20106;-65
2022/11/19 04:43:31;;;;;;;20.73;13.43;;;;;;;4.76;85.61;100898.88;5136042;27;20476;-65
2022/11/19 04:45:56;;;;;;;20.65;12.95;;;;;;;4.88;85.15;100906.22;5136116;27;20027;-64
2022/11/19 04:48:22;;;;;;;20.30;13.13;;;;;;;4.95;85.32;100908.22;5135939;27;20392;-65
2022/11/19 04:50:47;;;;;;;21.75;12.85;;;;;;;4.99;85.18;100903.16;5136155;27;20039;-65
2022/11/19 04:53:12;;;;;;;20.30;12.93;;;;;;;5.01;84.18;100905.81;5135469;27;20102;-65
2022/11/19 04:55:38;;;;;;;22.27;13.95;;;;;;;4.99;83.20;100912.75;5135837;27;20081;-64
2022/11/19 04:58:03;;;;;;;20.40;13.25;;;;;;;4.95;84.01;100909.13;5135954;27;20425;-65
2022/11/19 05:00:29;;;;;;;22.33;14.65;;;;;;;4.89;83.21;100905.41;5135759;27;20027;-66
2022/11/19 05:02:54;;;;;;;21.55;13.45;;;;;;;4.87;83.86;100907.97;5134540;27;20102;-65
2022/11/19 05:05:19;;;;;;;20.45;13.27;;;;;;;4.82;83.44;100904.31;5135486;27;20027;-65
2022/11/19 05:07:45;;;;;;;23.10;14.38;;;;;;;4.78;83.93;100907.66;5135425;27;20024;-65
2022/11/19 05:10:10;;;;;;;21.38;14.52;;;;;;;4.75;83.80;100907.53;5135529;27;20141;-64
2022/11/19 05:12:36;;;;;;;21.25;14.02;;;;;;;4.69;83.67;100904.72;5134323;27;20023;-65
2022/11/19 05:15:01;;;;;;;19.38;13.77;;;;;;;4.69;83.67;100925.66;5135430;27;20476;-65
2022/11/19 05:17:27;;;;;;;24.83;14.88;;;;;;;4.63;83.37;100923.72;5135533;27;20038;-65
2022/11/19 05:19:52;;;;;;;22.55;14.55;;;;;;;4.59;83.56;100929.66;5135343;27;20039;-65
2022/11/19 05:22:17;;;;;;;23.40;15.02;;;;;;;4.58;84.19;100932.22;5135317;27;20027;-64
2022/11/19 05:24:43;;;;;;;23.25;15.65;;;;;;;4.51;83.34;100936.34;5135427;27;20515;-64
2022/11/19 05:27:08;;;;;;;22.95;14.70;;;;;;;4.55;84.51;100935.63;5135168;27;20027;-65
2022/11/19 05:29:33;;;;;;;21.55;14.82;;;;;;;4.56;83.49;100940.03;5135161;27;20152;-65
2022/11/19 05:31:59;;;;;;;22.92;15.55;;;;;;;4.61;83.03;100953.28;5135164;27;20468;-65
2022/11/19 05:34:24;;;;;;;22.33;15.30;;;;;;;4.58;83.29;100950.53;5134826;27;20144;-64
2022/11/19 05:36:50;;;;;;;21.63;14.82;;;;;;;4.47;82.86;100948.41;5134722;27;20068;-65
2022/11/19 05:39:15;;;;;;;24.70;15.45;;;;;;;4.47;82.29;100951.03;5134958;27;20027;-65
2022/11/19 05:41:40;;;;;;;22.15;15.27;;;;;;;4.49;82.54;100958.94;5133547;27;20079;-64
2022/11/19 05:44:06;;;;;;;23.23;15.20;;;;;;;4.49;83.32;100949.34;5134802;27;20031;-65
2022/11/19 05:46:31;;;;;;;20.38;13.73;;;;;;;4.52;84.33;100951.22;5134826;27;20028;-64
2022/11/19 05:48:57;;;;;;;22.83;16.08;;;;;;;4.41;82.82;100950.81;5134739;27;20100;-65
2022/11/19 05:51:22;;;;;;;25.13;16.30;;;;;;;4.34;83.30;100951.41;5134916;27;20102;-65
2022/11/19 05:53:47;;;;;;;24.00;15.93;;;;;;;4.30;83.02;100946.91;5134619;27;20027;-64
2022/11/19 05:56:13;;;;;;;25.88;16.65;;;;;;;4.24;82.63;100957.16;5134683;27;20116;-64
2022/11/19 05:58:38;;;;;;;25.75;16.50;;;;;;;4.22;82.86;100959.69;5134572;27;20046;-65
2022/11/19 06:01:04;;;;;;;24.98;16.63;;;;;;;4.21;82.59;100957.03;5134862;27;20023;-64
2022/11/19 06:03:30;;;;;;;24.05;16.45;;;;;;;4.23;83.44;100965.81;5134630;27;20106;-64
2022/11/19 06:05:55;;;;;;;26.50;16.25;;;;;;;4.14;82.90;100950.66;5134232;27;20451;-65
2022/11/19 06:08:20;;;;;;;25.13;17.13;;;;;;;4.25;82.80;100977.22;5134417;27;20047;-64
2022/11/19 06:10:46;;;;;;;25.30;16.80;;;;;;;4.27;83.23;100984.28;5134336;27;20068;-65
2022/11/19 06:13:11;;;;;;;24.10;16.88;;;;;;;4.24;83.35;100975.47;5134368;27;20407;-64
2022/11/19 06:15:37;;;;;;;26.92;17.45;;;;;;;4.10;82.84;100982.75;5134328;27;20066;-66
2022/11/19 06:18:03;;;;;;;25.33;17.27;;;;;;;4.06;82.88;100993.03;5134379;27;20403;-65
2022/11/19 06:20:29;;;;;;;26.83;17.05;;;;;;;4.04;84.44;100992.97;5134202;27;20023;-65
2022/11/19 06:22:54;;;;;;;28.20;18.08;;;;;;;4.03;83.21;101000.78;5134166;27;20026;-64
2022/11/19 06:25:19;;;;;;;28.15;18.35;;;;;;;3.96;82.99;100995.28;5134052;27;20050;-63
2022/11/19 06:27:45;;;;;;;27.95;18.63;;;;;;;3.97;83.21;100997.06;5134228;27;20019;-65
2022/11/19 06:30:11;;;;;;;30.38;18.85;;;;;;;3.93;81.96;101003.00;5134034;27;20019;-64
2022/11/19 06:32:37;;;;;;;28.10;17.90;;;;;;;3.81;82.37;101010.34;5134183;27;20030;-64
2022/11/19 06:35:02;;;;;;;28.80;18.33;;;;;;;3.83;82.45;101021.78;5133691;27;20104;-64
2022/11/19 06:37:28;;;;;;;26.77;17.90;;;;;;;3.88;83.47;101028.06;5133852;27;20130;-63
2022/11/19 06:39:54;;;;;;;28.42;17.95;;;;;;;3.95;83.40;101017.03;5133972;27;20019;-63
2022/11/19 06:42:35;;;;;;;29.20;18.63;;;;;;;3.97;82.51;101019.69;5133916;27;20033;-64
2022/11/19 06:45:11;;;;;;;29.35;19.30;;;;;;;3.93;82.84;101026.53;5133972;27;20126;-64
2022/11/19 06:47:38;;;;;;;28.83;19.25;;;;;;;3.92;82.02;101029.97;5133899;27;20265;-64
2022/11/19 06:50:08;;;;;;;29.65;18.98;;;;;;;3.91;82.88;101019.47;5133183;27;20019;-64
2022/11/19 06:52:34;;;;;;;32.63;20.80;;;;;;;3.93;83.11;101016.06;5134024;27;20049;-64
2022/11/19 06:54:59;;;;;;;28.65;18.65;;;;;;;3.97;82.76;101017.97;5132517;28;20027;-64
2022/11/19 06:57:25;;;;;;;33.00;19.77;;;;;;;4.00;83.54;101019.84;5133895;27;20355;-65
2022/11/19 06:59:50;;;;;;;30.55;18.67;;;;;;;4.01;83.03;101024.22;5133786;27;20446;-64
2022/11/19 07:02:15;;;;;;;30.20;18.50;;;;;;;4.04;82.77;101031.31;5133740;27;20452;-64
2022/11/19 07:04:41;;;;;;;30.98;19.10;;;;;;;4.05;82.18;101039.22;5133651;27;20030;-64
2022/11/19 07:07:07;;;;;;;31.90;19.70;;;;;;;3.96;81.46;101038.84;5133669;27;20071;-64
2022/11/19 07:09:33;;;;;;;32.42;19.17;;;;;;;3.88;81.31;101043.75;5133653;27;20027;-64
2022/11/19 07:11:58;;;;;;;29.90;18.98;;;;;;;3.79;81.95;101048.59;5133686;27;20022;-64
2022/11/19 07:14:24;;;;;;;35.17;20.20;;;;;;;3.72;80.04;101043.94;5133608;27;20046;-64
2022/11/19 07:16:49;;;;;;;34.33;21.80;;;;;;;3.59;80.79;101045.16;5133625;27;20027;-64
2022/11/19 07:19:14;;;;;;;34.75;20.23;;;;;;;3.49;81.10;101054.34;5132358;28;20026;-64
2022/11/19 07:21:40;;;;;;;35.55;20.00;;;;;;;3.48;82.21;101042.09;5133585;27;20033;-64
2022/11/19 07:24:08;;;;;;;33.03;18.98;;;;;;;3.50;81.16;101044.78;5132139;28;20155;-63
2022/11/19 07:26:35;;;;;;;31.70;18.52;;;;;;;3.56;81.58;101057.22;5133820;27;20040;-64
2022/11/19 07:29:02;;;;;;;32.85;18.92;;;;;;;3.61;80.75;101071.38;5132106;28;20384;-64
2022/11/19 07:31:28;;;;;;;33.70;20.38;;;;;;;3.60;79.50;101072.16;5133358;27;20024;-64
2022/11/19 07:33:54;;;;;;;35.05;20.20;;;;;;;3.53;79.39;101071.03;5133375;27;20019;-64
2022/11/19 07:36:19;;;;;;;31.23;18.23;;;;;;;3.50;81.27;101068.28;5133034;27;20050;-64
2022/11/19 07:38:45;;;;;;;35.63;19.08;;;;;;;3.49;79.66;101069.13;5133409;27;20357;-66
2022/11/19 07:43:54;;;;;;;30.55;18.73;;;;;;;3.58;80.10;101081.69;5133336;28;20194;-64
2022/11/19 07:46:19;;;;;;;34.15;19.60;;;;;;;3.55;79.97;101086.78;5133256;27;20106;-64
2022/11/19 07:48:45;;;;;;;33.70;19.90;;;;;;;3.51;79.06;101081.44;5133598;27;20099;-63
2022/11/19 07:51:10;;;;;;;31.58;18.70;;;;;;;3.50;80.41;101089.19;5133480;27;20042;-63
2022/11/19 07:53:36;;;;;;;34.35;19.80;;;;;;;3.47;80.11;101082.13;5133279;27;20501;-64
2022/11/19 07:56:02;;;;;;;34.90;18.40;;;;;;;3.50;80.43;101090.06;5133419;27;20053;-64
2022/11/19 07:58:27;;;;;;;37.05;19.83;;;;;;;3.49;80.99;101095.25;5133148;27;20054;-64
2022/11/19 08:00:52;;;;;;;30.90;18.77;;;;;;;3.52;80.46;101098.00;5134315;27;20034;-65
2022/11/19 08:03:18;;;;;;;33.58;19.45;;;;;;;3.60;80.48;101098.31;5136783;27;20027;-65
2022/11/19 08:05:44;;;;;;;33.45;17.88;;;;;;;3.67;80.56;101098.63;5136782;27;20058;-64
2022/11/19 08:08:09;;;;;;;35.15;20.05;;;;;;;3.71;79.52;101100.56;5136580;27;20027;-64
2022/11/19 08:10:35;;;;;;;32.83;19.38;;;;;;;3.69;79.77;101098.72;5136707;27;20035;-64
2022/11/19 08:13:03;;;;;;;30.80;18.50;;;;;;;3.68;78.62;101102.13;5136789;27;20023;-64
2022/11/19 08:15:30;;;;;;;33.00;18.92;;;;;;;3.70;79.14;101114.44;5136528;27;20035;-64
2022/11/19 08:18:11;;;;;;;29.88;17.67;;;;;;;3.72;79.34;101118.00;5136765;27;20110;-64
2022/11/19 08:20:37;;;;;;;34.30;19.50;;;;;;;3.74;78.87;101105.91;5136495;27;20031;-64
2022/11/19 08:23:02;;;;;;;29.85;18.35;;;;;;;3.78;79.14;101113.91;5136477;27;20079;-64
2022/11/19 08:25:28;;;;;;;31.45;18.92;;;;;;;3.78;79.88;101103.44;5136331;27;20024;-64
2022/11/19 08:27:53;;;;;;;33.05;19.05;;;;;;;3.75;79.15;101115.53;5136355;27;20522;-64
2022/11/19 08:30:18;;;;;;;32.08;18.88;;;;;;;3.65;78.52;101120.31;5136367;27;20038;-64
2022/11/19 08:32:44;;;;;;;31.55;18.27;;;;;;;3.51;79.13;101118.00;5136213;27;20023;-63
2022/11/19 08:35:09;;;;;;;32.97;19.33;;;;;;;3.48;79.05;101119.59;5135992;27;20484;-64
2022/11/19 08:37:34;;;;;;;31.45;19.00;;;;;;;3.49;79.61;101131.81;5134722;27;20023;-64
2022/11/19 08:40:00;;;;;;;32.65;19.92;;;;;;;3.48;79.39;101130.03;5136074;27;20499;-64
2022/11/19 08:45:09;;;;;;;31.60;18.45;;;;;;;3.49;78.61;101130.09;5136111;27;20046;-64
2022/11/19 08:47:34;;;;;;;31.15;18.52;;;;;;;3.36;79.70;101112.09;5135648;27;20412;-65
2022/11/19 08:50:00;;;;;;;32.50;18.95;;;;;;;3.45;78.87;101137.72;5135685;27;20058;-64
2022/11/19 08:52:25;;;;;;;34.10;19.48;;;;;;;3.39;79.07;101142.69;5132940;27;20031;-64
2022/11/19 08:54:50;;;;;;;35.55;19.80;;;;;;;3.39;79.52;101140.09;5134434;27;20055;-64
2022/11/19 08:57:16;;;;;;;31.05;19.48;;;;;;;3.37;79.59;101142.59;5134296;27;20461;-65
2022/11/19 08:59:41;;;;;;;33.83;19.58;;;;;;;3.43;79.36;101142.00;5134241;27;20489;-64
2022/11/19 09:02:09;;;;;;;31.55;19.48;;;;;;;3.38;78.78;101140.88;5134237;27;20027;-64
2022/11/19 09:04:35;;;;;;;30.77;18.00;;;;;;;3.42;79.56;101142.81;5135252;27;20075;-64
2022/11/19 09:07:01;;;;;;;32.55;19.00;;;;;;;3.45;79.43;101145.56;5135474;27;20031;-64
2022/11/19 09:09:26;;;;;;;33.85;18.67;;;;;;;3.50;80.04;101146.66;5135781;27;20512;-65
2022/11/19 09:11:54;;;;;;;33.97;19.75;;;;;;;3.42;79.74;101145.41;5133924;27;20031;-65
2022/11/19 09:14:19;;;;;;;30.42;18.83;;;;;;;3.41;79.42;101148.88;5135202;27;20038;-64
2022/11/19 09:16:45;;;;;;;30.95;17.92;;;;;;;3.39;78.72;101146.19;5134091;27;20020;-64
2022/11/19 09:19:10;;;;;;;28.80;17.48;;;;;;;3.37;79.55;101144.34;5135241;27;20023;-64
2022/11/19 09:21:36;;;;;;;31.42;17.08;;;;;;;3.39;78.83;101159.25;5135231;27;20031;-64
2022/11/19 09:24:01;;;;;;;31.00;17.40;;;;;;;3.38;78.24;101157.44;5135232;27;20023;-64
2022/11/19 09:26:27;;;;;;;29.88;16.63;;;;;;;3.41;78.24;101160.22;5135484;27;20043;-63
2022/11/19 09:28:53;;;;;;;29.98;17.38;;;;;;;3.41;78.59;101151.47;5135174;27;20024;-63
2022/11/19 09:31:19;;;;;;;28.80;17.40;;;;;;;3.43;80.06;101163.78;5135381;27;20114;-64
2022/11/19 09:33:47;;;;;;;30.55;18.00;;;;;;;3.44;78.67;101164.69;5135038;27;20023;-64
2022/11/19 09:36:13;;;;;;;33.97;18.17;;;;;;;3.42;79.05;101169.81;5134696;27;20400;-64
2022/11/19 09:38:39;;;;;;;29.75;17.80;;;;;;;3.46;78.44;101176.09;5134922;27;20031;-64
2022/11/19 09:41:42;;;;;;;27.95;17.08;;;;;;;3.51;78.37;101174.56;5134965;27;20043;-64
2022/11/19 09:44:10;;;;;;;28.70;16.45;;;;;;;3.47;77.81;101183.13;5134846;27;20027;-65
2022/11/19 09:47:02;;;;;;;30.83;17.25;;;;;;;3.41;78.21;101190.66;5134704;27;20019;-63
2022/11/19 09:49:42;;;;;;;28.38;17.48;;;;;;;3.34;78.32;101197.34;5134565;27;20441;-64
2022/11/19 09:52:20;;;;;;;31.63;17.45;;;;;;;3.26;78.30;101191.78;5134688;27;20481;-64
2022/11/19 09:54:51;;;;;;;29.15;17.08;;;;;;;3.23;78.50;101198.56;5134693;27;20055;-64
2022/11/19 09:57:44;;;;;;;32.38;18.48;;;;;;;3.29;78.66;101206.66;5134636;27;20027;-64
2022/11/19 10:00:16;;;;;;;28.92;16.67;;;;;;;3.27;78.71;101203.09;5133318;27;20102;-63
2022/11/19 10:02:41;;;;;;;30.85;17.17;;;;;;;3.35;78.93;101200.84;5134435;27;20477;-64
2022/11/19 10:05:13;;;;;;;29.48;16.75;;;;;;;3.33;78.68;101205.97;5134242;27;20076;-64
2022/11/19 10:08:09;;;;;;;32.85;16.48;;;;;;;3.36;78.43;101211.34;5134264;27;20425;-64
2022/11/19 10:10:41;;;;;;;26.98;16.33;;;;;;;3.32;78.03;101219.88;5134400;27;20023;-64
2022/11/19 10:13:22;;;;;;;28.65;16.08;;;;;;;3.25;78.24;101223.00;5134345;27;20019;-63
2022/11/19 10:15:56;;;;;;;30.58;17.35;;;;;;;3.24;77.84;101223.84;5134521;27;20030;-63
2022/11/19 10:18:58;;;;;;;27.63;15.60;;;;;;;3.21;77.81;101208.94;5134264;27;20023;-64
2022/11/19 10:21:54;;;;;;;28.38;16.52;;;;;;;3.23;77.70;101212.50;5120747;27;20039;-64
2022/11/19 10:24:35;;;;;;;30.65;16.75;;;;;;;3.30;78.48;101215.38;5133451;27;20055;-64
2022/11/19 10:27:11;;;;;;;30.33;17.05;;;;;;;3.36;78.57;101216.56;5134309;27;20053;-64
2022/11/19 10:29:39;;;;;;;29.33;16.05;;;;;;;3.40;77.48;101222.84;5134410;27;20034;-64
2022/11/19 10:32:29;;;;;;;26.70;16.25;;;;;;;3.39;77.36;101235.00;5134145;27;20058;-64
2022/11/19 10:35:01;;;;;;;28.92;16.58;;;;;;;3.37;76.85;101227.91;5133958;27;20050;-64
2022/11/19 10:37:34;;;;;;;27.60;15.95;;;;;;;3.40;76.93;101231.56;5133998;27;20035;-64
2022/11/19 10:40:17;;;;;;;26.92;15.27;;;;;;;3.38;77.04;101230.59;5134536;27;20026;-64
2022/11/19 10:42:51;;;;;;;27.58;14.90;;;;;;;3.38;77.83;101234.91;5134061;27;20023;-64
2022/11/19 10:45:22;;;;;;;28.42;15.98;;;;;;;3.38;77.70;101230.59;5134001;27;20069;-64
2022/11/19 10:47:59;;;;;;;27.00;14.77;;;;;;;3.39;76.28;101221.06;5133975;27;20185;-64
2022/11/19 10:50:25;;;;;;;28.65;16.73;;;;;;;3.32;76.75;101224.22;5133861;27;20125;-63
2022/11/19 10:53:28;;;;;;;25.08;15.20;;;;;;;3.32;77.11;101224.22;5133876;27;20062;-64
2022/11/19 10:56:00;;;;;;;27.27;16.08;;;;;;;3.32;77.18;101225.09;5134149;27;20076;-64
2022/11/19 10:58:35;;;;;;;25.40;15.02;;;;;;;3.33;77.17;101224.25;5133819;27;20052;-63
2022/11/19 11:01:04;;;;;;;24.23;14.52;;;;;;;3.33;76.66;101221.66;5133777;27;20114;-64
2022/11/19 11:03:53;;;;;;;25.00;14.77;;;;;;;3.37;77.63;101220.97;5133743;27;20102;-64
2022/11/19 11:06:18;;;;;;;25.67;14.05;;;;;;;3.29;76.93;101224.94;5133817;27;20423;-63
2022/11/19 11:08:50;;;;;;;26.55;15.45;;;;;;;3.32;76.90;101216.38;5134075;27;20020;-63
2022/11/19 11:14:50;;;;;;;24.92;15.25;;;;;;;3.35;77.24;101224.34;5133539;27;20019;-64
2022/11/19 11:17:01;;;;;;;25.73;13.93;;;;;;;3.34;76.52;101227.75;5133911;28;20069;-63
2022/11/19 11:19:27;;;;;;;24.83;15.40;;;;;;;3.21;76.22;101229.84;5133586;27;20023;-64
2022/11/19 11:21:54;;;;;;;22.67;13.93;;;;;;;3.20;76.57;101225.41;5133566;27;20028;-64
2022/11/19 11:24:20;;;;;;;21.33;13.45;;;;;;;3.17;76.22;101229.59;5133383;27;20066;-64
2022/11/19 11:26:46;;;;;;;22.17;13.25;;;;;;;3.16;75.74;101225.19;5133581;27;20499;-64
2022/11/19 11:29:11;;;;;;;23.73;13.60;;;;;;;3.19;75.92;101236.69;5133419;27;20106;-64
2022/11/19 11:31:44;;;;;;;20.98;12.52;;;;;;;3.26;75.80;101219.59;5133489;27;20069;-64
2022/11/19 11:34:29;;;;;;;20.13;12.95;;;;;;;3.30;76.20;101225.84;5133189;27;20072;-63
2022/11/19 11:36:56;;;;;;;28.45;15.05;;;;;;;3.33;75.77;101221.66;5136557;27;20046;-63
2022/11/19 11:39:26;;;;;;;20.70;12.88;;;;;;;3.36;74.75;101215.69;5137527;27;20437;-63
2022/11/19 11:41:53;;;;;;;26.98;15.27;;;;;;;3.31;75.17;101215.47;5137165;27;20061;-64
2022/11/19 11:44:20;;;;;;;30.15;16.35;;;;;;;3.32;76.24;101217.25;5137096;27;20488;-64
2022/11/19 11:46:51;;;;;;;43.90;18.77;;;;;;;3.25;76.14;101204.72;5137117;27;20023;-64
2022/11/19 11:49:36;;;;;;;30.13;16.75;;;;;;;3.24;75.92;101205.56;5137373;27;20027;-64